sensor_id;sensor_type;location;lat;lon;timestamp;pressure;altitude;pressure_sealevel;temperature;humidity
43824;BME280;29470;53.550;9.926;2022-11-15T00:02:42;100740.13;;;6.30;100.00
43824;BME280;29470;53.550;9.926;2022-11-15T00:08:04;100739.75;;;6.25;100.00
43824;BME280;29470;53.550;9.926;2022-11-15T00:13:27;100744.34;;;6.19;100.00
43824;BME280;29470;53.550;9.926;2022-11-15T00:18:50;100748.78;;;6.41;100.00
43824;BME280;29470;53.550;9.926;2022-11-15T00:24:11;100737.88;;;6.64;100.00
43824;BME280;29470;53.550;9.926;2022-11-15T00:29:34;100737.25;;;6.77;100.00
43824;BME280;29470;53.550;9.926;2022-11-15T00:34:57;100740.72;;;6.77;100.00
43824;BME280;29470;53.550;9.926;2022-11-15T00:40:18;100734.44;;;6.74;100.00
43824;BME280;29470;53.550;9.926;2022-11-15T00:45:41;100738.81;;;6.75;100.00
43824;BME280;29470;53.550;9.926;2022-11-15T00:51:02;100735.97;;;6.61;100.00
43824;BME280;29470;53.550;9.926;2022-11-15T00:56:24;100739.56;;;6.63;100.00
43824;BME280;29470;53.550;9.926;2022-11-15T01:01:46;100736.22;;;6.75;100.00
43824;BME280;29470;53.550;9.926;2022-11-15T01:07:08;100732.75;;;6.74;100.00
43824;BME280;29470;53.550;9.926;2022-11-15T01:12:30;100726.03;;;6.56;100.00
43824;BME280;29470;53.550;9.926;2022-11-15T01:17:53;100712.28;;;6.34;100.00
43824;BME280;29470;53.550;9.926;2022-11-15T01:23:14;100718.28;;;6.25;100.00
43824;BME280;29470;53.550;9.926;2022-11-15T01:28:38;100719.56;;;6.09;100.00
43824;BME280;29470;53.550;9.926;2022-11-15T01:34:01;100722.94;;;5.99;100.00
43824;BME280;29470;53.550;9.926;2022-11-15T01:39:22;100717.06;;;6.00;100.00
43824;BME280;29470;53.550;9.926;2022-11-15T01:44:46;100717.22;;;6.02;100.00
43824;BME280;29470;53.550;9.926;2022-11-15T01:50:12;100709.84;;;5.96;100.00
43824;BME280;29470;53.550;9.926;2022-11-15T01:55:35;100708.69;;;5.93;100.00
43824;BME280;29470;53.550;9.926;2022-11-15T02:00:56;100693.06;;;5.70;100.00
43824;BME280;29470;53.550;9.926;2022-11-15T02:06:20;100677.97;;;5.54;100.00
43824;BME280;29470;53.550;9.926;2022-11-15T02:11:42;100688.41;;;5.66;100.00
43824;BME280;29470;53.550;9.926;2022-11-15T02:17:16;100689.66;;;5.61;100.00
43824;BME280;29470;53.550;9.926;2022-11-15T02:22:54;100689.00;;;5.53;100.00
43824;BME280;29470;53.550;9.926;2022-11-15T02:28:45;100695.28;;;5.57;100.00
43824;BME280;29470;53.550;9.926;2022-11-15T02:34:17;100689.94;;;5.64;100.00
43824;BME280;29470;53.550;9.926;2022-11-15T02:39:46;100674.28;;;5.31;100.00
43824;BME280;29470;53.550;9.926;2022-11-15T02:45:13;100677.13;;;5.35;100.00
43824;BME280;29470;53.550;9.926;2022-11-15T02:50:39;100669.81;;;5.39;100.00
43824;BME280;29470;53.550;9.926;2022-11-15T02:56:01;100663.81;;;5.39;100.00
43824;BME280;29470;53.550;9.926;2022-11-15T03:01:31;100657.69;;;5.47;100.00
43824;BME280;29470;53.550;9.926;2022-11-15T03:07:04;100664.19;;;5.43;100.00
43824;BME280;29470;53.550;9.926;2022-11-15T03:12:30;100663.13;;;5.12;100.00
43824;BME280;29470;53.550;9.926;2022-11-15T03:17:57;100677.88;;;5.34;100.00
43824;BME280;29470;53.550;9.926;2022-11-15T03:23:23;100671.44;;;5.28;100.00
43824;BME280;29470;53.550;9.926;2022-11-15T03:28:50;100672.34;;;5.29;100.00
43824;BME280;29470;53.550;9.926;2022-11-15T03:34:18;100660.59;;;5.41;100.00
43824;BME280;29470;53.550;9.926;2022-11-15T03:39:42;100659.75;;;5.51;100.00
43824;BME280;29470;53.550;9.926;2022-11-15T03:45:12;100653.13;;;5.64;100.00
43824;BME280;29470;53.550;9.926;2022-11-15T03:50:35;100648.22;;;5.56;100.00
43824;BME280;29470;53.550;9.926;2022-11-15T03:55:58;100659.91;;;5.63;100.00
43824;BME280;29470;53.550;9.926;2022-11-15T04:01:19;100666.00;;;5.44;100.00
43824;BME280;29470;53.550;9.926;2022-11-15T04:06:41;100677.59;;;5.60;100.00
43824;BME280;29470;53.550;9.926;2022-11-15T04:12:04;100654.13;;;5.95;100.00
43824;BME280;29470;53.550;9.926;2022-11-15T04:17:25;100648.03;;;6.14;100.00
43824;BME280;29470;53.550;9.926;2022-11-15T04:22:46;100639.94;;;6.19;100.00
43824;BME280;29470;53.550;9.926;2022-11-15T04:28:27;100636.09;;;6.25;100.00
43824;BME280;29470;53.550;9.926;2022-11-15T04:33:48;100647.56;;;6.39;100.00
43824;BME280;29470;53.550;9.926;2022-11-15T04:39:10;100643.94;;;6.37;100.00
43824;BME280;29470;53.550;9.926;2022-11-15T04:44:32;100641.00;;;6.63;100.00
43824;BME280;29470;53.550;9.926;2022-11-15T04:49:54;100639.59;;;6.77;100.00
43824;BME280;29470;53.550;9.926;2022-11-15T04:55:15;100636.59;;;6.93;100.00
43824;BME280;29470;53.550;9.926;2022-11-15T05:00:38;100641.09;;;7.06;100.00
43824;BME280;29470;53.550;9.926;2022-11-15T05:05:59;100636.56;;;7.03;100.00
43824;BME280;29470;53.550;9.926;2022-11-15T05:11:21;100643.34;;;7.13;100.00
43824;BME280;29470;53.550;9.926;2022-11-15T05:16:44;100625.06;;;7.20;100.00
43824;BME280;29470;53.550;9.926;2022-11-15T05:22:05;100627.38;;;7.17;100.00
43824;BME280;29470;53.550;9.926;2022-11-15T05:27:26;100628.81;;;7.24;100.00
43824;BME280;29470;53.550;9.926;2022-11-15T05:32:49;100626.84;;;7.32;100.00
43824;BME280;29470;53.550;9.926;2022-11-15T05:38:11;100632.13;;;7.33;100.00
43824;BME280;29470;53.550;9.926;2022-11-15T05:43:34;100637.50;;;7.36;100.00
43824;BME280;29470;53.550;9.926;2022-11-15T05:48:59;100625.28;;;7.34;100.00
43824;BME280;29470;53.550;9.926;2022-11-15T05:54:35;100634.75;;;7.45;100.00
43824;BME280;29470;53.550;9.926;2022-11-15T05:59:59;100638.59;;;7.50;100.00
43824;BME280;29470;53.550;9.926;2022-11-15T06:05:22;100638.22;;;7.56;100.00
43824;BME280;29470;53.550;9.926;2022-11-15T06:10:43;100649.63;;;7.60;100.00
43824;BME280;29470;53.550;9.926;2022-11-15T06:21:53;100651.31;;;7.59;100.00
43824;BME280;29470;53.550;9.926;2022-11-15T06:27:14;100649.63;;;7.60;100.00
43824;BME280;29470;53.550;9.926;2022-11-15T06:32:36;100647.19;;;7.61;100.00
43824;BME280;29470;53.550;9.926;2022-11-15T06:38:03;100638.50;;;7.71;100.00
43824;BME280;29470;53.550;9.926;2022-11-15T06:43:25;100658.88;;;7.68;100.00
43824;BME280;29470;53.550;9.926;2022-11-15T06:48:47;100649.88;;;7.63;100.00
43824;BME280;29470;53.550;9.926;2022-11-15T06:54:10;100657.84;;;7.66;100.00
43824;BME280;29470;53.550;9.926;2022-11-15T06:59:31;100659.78;;;7.69;100.00
43824;BME280;29470;53.550;9.926;2022-11-15T07:04:59;100661.03;;;7.74;100.00
43824;BME280;29470;53.550;9.926;2022-11-15T07:10:22;100673.19;;;7.64;100.00
43824;BME280;29470;53.550;9.926;2022-11-15T07:15:44;100683.28;;;7.73;100.00
43824;BME280;29470;53.550;9.926;2022-11-15T07:21:08;100677.38;;;7.74;100.00
43824;BME280;29470;53.550;9.926;2022-11-15T07:26:32;100679.91;;;7.85;100.00
43824;BME280;29470;53.550;9.926;2022-11-15T07:31:54;100668.44;;;7.91;100.00
43824;BME280;29470;53.550;9.926;2022-11-15T07:37:16;100681.16;;;7.90;100.00
43824;BME280;29470;53.550;9.926;2022-11-15T07:42:39;100686.69;;;7.94;100.00
43824;BME280;29470;53.550;9.926;2022-11-15T07:48:15;100681.53;;;7.94;100.00
43824;BME280;29470;53.550;9.926;2022-11-15T07:53:37;100672.56;;;7.89;100.00
43824;BME280;29470;53.550;9.926;2022-11-15T07:58:59;100674.03;;;7.97;100.00
43824;BME280;29470;53.550;9.926;2022-11-15T08:04:21;100667.03;;;8.07;100.00
43824;BME280;29470;53.550;9.926;2022-11-15T08:09:42;100676.69;;;8.09;100.00
43824;BME280;29470;53.550;9.926;2022-11-15T08:15:06;100661.94;;;8.19;100.00
43824;BME280;29470;53.550;9.926;2022-11-15T08:20:29;100664.84;;;8.23;100.00
43824;BME280;29470;53.550;9.926;2022-11-15T08:25:50;100661.97;;;8.31;100.00
43824;BME280;29470;53.550;9.926;2022-11-15T08:31:15;100659.69;;;8.46;100.00
43824;BME280;29470;53.550;9.926;2022-11-15T08:36:36;100664.03;;;8.57;100.00
43824;BME280;29470;53.550;9.926;2022-11-15T08:42:05;100663.63;;;8.75;100.00
43824;BME280;29470;53.550;9.926;2022-11-15T08:47:28;100687.84;;;8.77;100.00
43824;BME280;29470;53.550;9.926;2022-11-15T08:52:49;100689.03;;;8.58;100.00
43824;BME280;29470;53.550;9.926;2022-11-15T08:58:11;100683.56;;;8.65;100.00
43824;BME280;29470;53.550;9.926;2022-11-15T09:03:34;100669.41;;;8.60;100.00
43824;BME280;29470;53.550;9.926;2022-11-15T09:08:56;100675.28;;;8.81;100.00
43824;BME280;29470;53.550;9.926;2022-11-15T09:14:24;100664.50;;;8.75;100.00
43824;BME280;29470;53.550;9.926;2022-11-15T09:19:48;100670.16;;;9.17;100.00
43824;BME280;29470;53.550;9.926;2022-11-15T09:25:10;100670.06;;;9.39;100.00
43824;BME280;29470;53.550;9.926;2022-11-15T09:30:32;100660.72;;;9.53;100.00
43824;BME280;29470;53.550;9.926;2022-11-15T09:35:59;100655.03;;;9.83;100.00
43824;BME280;29470;53.550;9.926;2022-11-15T09:47:24;100667.94;;;10.32;96.21
43824;BME280;29470;53.550;9.926;2022-11-15T09:52:55;100665.44;;;10.34;96.37
43824;BME280;29470;53.550;9.926;2022-11-15T09:58:03;100684.81;;;10.27;96.72
43824;BME280;29470;53.550;9.926;2022-11-15T10:03:12;100678.34;;;10.08;97.20
43824;BME280;29470;53.550;9.926;2022-11-15T10:08:28;100668.47;;;10.02;99.50
43824;BME280;29470;53.550;9.926;2022-11-15T10:13:36;100666.16;;;10.19;99.17
43824;BME280;29470;53.550;9.926;2022-11-15T10:18:50;100664.06;;;10.39;98.52
43824;BME280;29470;53.550;9.926;2022-11-15T10:23:59;100662.97;;;10.35;98.18
43824;BME280;29470;53.550;9.926;2022-11-15T10:29:02;100650.50;;;10.29;99.39
43824;BME280;29470;53.550;9.926;2022-11-15T10:34:12;100644.53;;;10.30;99.61
43824;BME280;29470;53.550;9.926;2022-11-15T10:39:17;100638.28;;;10.27;99.96
43824;BME280;29470;53.550;9.926;2022-11-15T10:44:23;100633.75;;;10.36;99.48
43824;BME280;29470;53.550;9.926;2022-11-15T10:49:28;100629.69;;;10.40;99.26
43824;BME280;29470;53.550;9.926;2022-11-15T10:54:37;100624.94;;;10.46;98.76
43824;BME280;29470;53.550;9.926;2022-11-15T10:59:45;100613.84;;;10.60;98.52
43824;BME280;29470;53.550;9.926;2022-11-15T11:04:50;100603.81;;;10.79;97.33
43824;BME280;29470;53.550;9.926;2022-11-15T11:10:00;100597.19;;;10.96;97.36
43824;BME280;29470;53.550;9.926;2022-11-15T11:15:11;100592.88;;;10.96;97.54
43824;BME280;29470;53.550;9.926;2022-11-15T11:20:20;100594.59;;;11.09;97.25
43824;BME280;29470;53.550;9.926;2022-11-15T11:25:34;100596.47;;;11.25;97.33
43824;BME280;29470;53.550;9.926;2022-11-15T11:30:45;100584.31;;;11.24;95.82
43824;BME280;29470;53.550;9.926;2022-11-15T11:36:11;100582.03;;;11.42;96.08
43824;BME280;29470;53.550;9.926;2022-11-15T11:42:09;100576.31;;;11.48;95.62
43824;BME280;29470;53.550;9.926;2022-11-15T11:47:21;100566.72;;;11.60;95.04
43824;BME280;29470;53.550;9.926;2022-11-15T11:52:34;100575.00;;;11.55;94.78
43824;BME280;29470;53.550;9.926;2022-11-15T11:57:47;100569.88;;;11.28;96.32
43824;BME280;29470;53.550;9.926;2022-11-15T12:03:02;100562.22;;;11.16;97.34
43824;BME280;29470;53.550;9.926;2022-11-15T12:08:25;100567.56;;;11.46;96.53
43824;BME280;29470;53.550;9.926;2022-11-15T12:13:39;100556.94;;;11.70;94.86
43824;BME280;29470;53.550;9.926;2022-11-15T12:18:46;100556.69;;;11.80;94.14
43824;BME280;29470;53.550;9.926;2022-11-15T12:23:55;100555.59;;;11.76;93.78
43824;BME280;29470;53.550;9.926;2022-11-15T12:29:06;100549.34;;;11.73;94.18
43824;BME280;29470;53.550;9.926;2022-11-15T12:34:28;100538.31;;;11.62;95.35
43824;BME280;29470;53.550;9.926;2022-11-15T12:45:27;100532.91;;;11.44;96.66
43824;BME280;29470;53.550;9.926;2022-11-15T12:50:55;100523.72;;;11.49;97.22
43824;BME280;29470;53.550;9.926;2022-11-15T12:56:23;100520.34;;;11.50;97.28
43824;BME280;29470;53.550;9.926;2022-11-15T13:12:55;100493.28;;;11.60;98.12
43824;BME280;29470;53.550;9.926;2022-11-15T13:17:58;100493.59;;;11.64;98.24
43824;BME280;29470;53.550;9.926;2022-11-15T13:23:09;100478.78;;;11.77;97.36
43824;BME280;29470;53.550;9.926;2022-11-15T13:28:30;100482.88;;;12.02;96.38
43824;BME280;29470;53.550;9.926;2022-11-15T13:33:37;100476.97;;;12.04;96.66
43824;BME280;29470;53.550;9.926;2022-11-15T13:38:41;100459.53;;;12.17;96.77
43824;BME280;29470;53.550;9.926;2022-11-15T13:43:46;100454.28;;;12.15;97.28
43824;BME280;29470;53.550;9.926;2022-11-15T13:48:55;100451.75;;;12.17;97.06
43824;BME280;29470;53.550;9.926;2022-11-15T13:54:02;100438.53;;;12.12;97.32
43824;BME280;29470;53.550;9.926;2022-11-15T13:59:15;100443.09;;;12.01;98.70
43824;BME280;29470;53.550;9.926;2022-11-15T14:04:24;100453.28;;;12.13;97.89
43824;BME280;29470;53.550;9.926;2022-11-15T14:09:33;100461.44;;;12.19;98.17
43824;BME280;29470;53.550;9.926;2022-11-15T14:14:44;100455.44;;;12.20;97.73
43824;BME280;29470;53.550;9.926;2022-11-15T14:19:50;100440.69;;;12.19;97.76
43824;BME280;29470;53.550;9.926;2022-11-15T14:25:15;100431.56;;;12.11;98.66
43824;BME280;29470;53.550;9.926;2022-11-15T14:30:20;100433.19;;;12.09;98.84
43824;BME280;29470;53.550;9.926;2022-11-15T14:35:24;100437.63;;;11.97;99.86
43824;BME280;29470;53.550;9.926;2022-11-15T14:40:26;100440.53;;;11.88;100.00
43824;BME280;29470;53.550;9.926;2022-11-15T14:45:31;100439.47;;;11.84;100.00
43824;BME280;29470;53.550;9.926;2022-11-15T14:50:34;100428.28;;;11.70;100.00
43824;BME280;29470;53.550;9.926;2022-11-15T14:55:38;100430.59;;;11.66;100.00
43824;BME280;29470;53.550;9.926;2022-11-15T15:00:42;100429.69;;;11.50;100.00
43824;BME280;29470;53.550;9.926;2022-11-15T15:05:45;100428.94;;;11.38;100.00
43824;BME280;29470;53.550;9.926;2022-11-15T15:10:48;100427.34;;;11.40;100.00
43824;BME280;29470;53.550;9.926;2022-11-15T15:15:52;100433.97;;;11.21;100.00
43824;BME280;29470;53.550;9.926;2022-11-15T15:20:56;100436.28;;;11.16;100.00
43824;BME280;29470;53.550;9.926;2022-11-15T15:26:01;100445.69;;;11.01;100.00
43824;BME280;29470;53.550;9.926;2022-11-15T15:31:05;100445.09;;;10.92;100.00
43824;BME280;29470;53.550;9.926;2022-11-15T15:36:10;100452.28;;;10.96;100.00
43824;BME280;29470;53.550;9.926;2022-11-15T15:41:15;100439.75;;;10.88;100.00
43824;BME280;29470;53.550;9.926;2022-11-15T15:46:19;100434.38;;;10.85;100.00
43824;BME280;29470;53.550;9.926;2022-11-15T15:51:22;100434.47;;;10.73;100.00
43824;BME280;29470;53.550;9.926;2022-11-15T15:56:25;100429.22;;;10.72;100.00
43824;BME280;29470;53.550;9.926;2022-11-15T16:01:31;100429.63;;;10.65;100.00
43824;BME280;29470;53.550;9.926;2022-11-15T16:06:36;100417.50;;;10.64;100.00
43824;BME280;29470;53.550;9.926;2022-11-15T16:11:39;100413.81;;;10.60;100.00
43824;BME280;29470;53.550;9.926;2022-11-15T16:16:44;100410.00;;;10.68;100.00
43824;BME280;29470;53.550;9.926;2022-11-15T16:21:47;100400.16;;;10.76;100.00
43824;BME280;29470;53.550;9.926;2022-11-15T16:26:50;100395.84;;;10.90;100.00
43824;BME280;29470;53.550;9.926;2022-11-15T16:31:55;100397.25;;;10.85;100.00
43824;BME280;29470;53.550;9.926;2022-11-15T16:36:58;100384.41;;;10.86;100.00
43824;BME280;29470;53.550;9.926;2022-11-15T16:42:01;100375.25;;;10.92;100.00
43824;BME280;29470;53.550;9.926;2022-11-15T16:47:13;100380.44;;;10.92;100.00
43824;BME280;29470;53.550;9.926;2022-11-15T16:52:17;100375.97;;;10.75;100.00
43824;BME280;29470;53.550;9.926;2022-11-15T16:57:22;100378.97;;;10.68;100.00
43824;BME280;29470;53.550;9.926;2022-11-15T17:02:26;100381.13;;;10.75;100.00
43824;BME280;29470;53.550;9.926;2022-11-15T17:07:29;100378.28;;;10.71;100.00
43824;BME280;29470;53.550;9.926;2022-11-15T17:12:32;100371.94;;;10.66;100.00
43824;BME280;29470;53.550;9.926;2022-11-15T17:17:36;100375.03;;;10.60;100.00
43824;BME280;29470;53.550;9.926;2022-11-15T17:22:39;100376.78;;;10.61;100.00
43824;BME280;29470;53.550;9.926;2022-11-15T17:27:45;100365.31;;;10.42;100.00
43824;BME280;29470;53.550;9.926;2022-11-15T17:32:50;100371.28;;;10.41;100.00
43824;BME280;29470;53.550;9.926;2022-11-15T17:37:53;100371.06;;;10.38;100.00
43824;BME280;29470;53.550;9.926;2022-11-15T17:42:56;100358.63;;;10.46;100.00
43824;BME280;29470;53.550;9.926;2022-11-15T17:48:00;100355.81;;;10.56;100.00
43824;BME280;29470;53.550;9.926;2022-11-15T17:53:03;100352.25;;;10.54;100.00
43824;BME280;29470;53.550;9.926;2022-11-15T17:58:07;100341.41;;;10.60;100.00
43824;BME280;29470;53.550;9.926;2022-11-15T18:03:11;100345.13;;;10.79;100.00
43824;BME280;29470;53.550;9.926;2022-11-15T18:08:15;100349.06;;;10.87;100.00
43824;BME280;29470;53.550;9.926;2022-11-15T18:13:18;100343.72;;;10.84;100.00
43824;BME280;29470;53.550;9.926;2022-11-15T18:18:22;100327.16;;;10.95;100.00
43824;BME280;29470;53.550;9.926;2022-11-15T18:23:24;100321.00;;;10.93;100.00
43824;BME280;29470;53.550;9.926;2022-11-15T18:28:30;100321.34;;;10.84;100.00
43824;BME280;29470;53.550;9.926;2022-11-15T18:33:35;100314.44;;;10.85;100.00
43824;BME280;29470;53.550;9.926;2022-11-15T18:38:39;100307.31;;;10.81;100.00
43824;BME280;29470;53.550;9.926;2022-11-15T18:43:43;100306.81;;;10.86;100.00
43824;BME280;29470;53.550;9.926;2022-11-15T18:48:49;100298.84;;;10.83;100.00
43824;BME280;29470;53.550;9.926;2022-11-15T18:53:52;100297.19;;;10.70;100.00
43824;BME280;29470;53.550;9.926;2022-11-15T18:58:58;100292.75;;;10.68;100.00
43824;BME280;29470;53.550;9.926;2022-11-15T19:04:05;100290.84;;;10.65;100.00
43824;BME280;29470;53.550;9.926;2022-11-15T19:09:10;100298.38;;;10.75;100.00
43824;BME280;29470;53.550;9.926;2022-11-15T19:14:16;100299.47;;;10.79;100.00
43824;BME280;29470;53.550;9.926;2022-11-15T19:19:55;100293.72;;;10.70;100.00
43824;BME280;29470;53.550;9.926;2022-11-15T19:24:58;100290.66;;;10.62;100.00
43824;BME280;29470;53.550;9.926;2022-11-15T19:30:01;100288.06;;;10.62;100.00
43824;BME280;29470;53.550;9.926;2022-11-15T19:35:06;100294.41;;;10.67;100.00
43824;BME280;29470;53.550;9.926;2022-11-15T19:40:13;100291.22;;;10.71;100.00
43824;BME280;29470;53.550;9.926;2022-11-15T19:45:15;100292.81;;;10.69;100.00
43824;BME280;29470;53.550;9.926;2022-11-15T19:50:20;100280.38;;;10.77;100.00
43824;BME280;29470;53.550;9.926;2022-11-15T19:55:25;100276.88;;;10.76;100.00
43824;BME280;29470;53.550;9.926;2022-11-15T20:00:28;100267.69;;;10.67;100.00
43824;BME280;29470;53.550;9.926;2022-11-15T20:05:32;100262.50;;;10.67;100.00
43824;BME280;29470;53.550;9.926;2022-11-15T20:10:35;100275.00;;;10.74;100.00
43824;BME280;29470;53.550;9.926;2022-11-15T20:15:38;100276.97;;;10.78;100.00
43824;BME280;29470;53.550;9.926;2022-11-15T20:20:42;100267.00;;;10.84;100.00
43824;BME280;29470;53.550;9.926;2022-11-15T20:25:46;100274.78;;;10.84;100.00
43824;BME280;29470;53.550;9.926;2022-11-15T20:30:51;100267.31;;;10.75;100.00
43824;BME280;29470;53.550;9.926;2022-11-15T20:35:55;100277.66;;;10.75;100.00
43824;BME280;29470;53.550;9.926;2022-11-15T20:40:58;100266.44;;;10.75;100.00
43824;BME280;29470;53.550;9.926;2022-11-15T20:46:02;100275.00;;;10.74;100.00
43824;BME280;29470;53.550;9.926;2022-11-15T20:51:08;100269.13;;;10.76;100.00
43824;BME280;29470;53.550;9.926;2022-11-15T20:56:14;100262.25;;;10.77;100.00
43824;BME280;29470;53.550;9.926;2022-11-15T21:01:19;100254.50;;;10.77;100.00
43824;BME280;29470;53.550;9.926;2022-11-15T21:06:52;100255.19;;;10.74;100.00
43824;BME280;29470;53.550;9.926;2022-11-15T21:12:21;100249.03;;;10.72;100.00
43824;BME280;29470;53.550;9.926;2022-11-15T21:17:23;100246.34;;;10.56;100.00
43824;BME280;29470;53.550;9.926;2022-11-15T21:22:28;100241.34;;;10.59;100.00
43824;BME280;29470;53.550;9.926;2022-11-15T21:27:31;100238.25;;;10.65;100.00
43824;BME280;29470;53.550;9.926;2022-11-15T21:32:34;100232.94;;;10.63;100.00
43824;BME280;29470;53.550;9.926;2022-11-15T21:37:39;100237.50;;;10.67;100.00
43824;BME280;29470;53.550;9.926;2022-11-15T21:42:42;100238.78;;;10.59;100.00
43824;BME280;29470;53.550;9.926;2022-11-15T21:47:45;100238.84;;;10.60;100.00
43824;BME280;29470;53.550;9.926;2022-11-15T21:52:49;100235.53;;;10.63;100.00
43824;BME280;29470;53.550;9.926;2022-11-15T21:57:52;100231.63;;;10.55;100.00
43824;BME280;29470;53.550;9.926;2022-11-15T22:02:55;100233.34;;;10.41;100.00
43824;BME280;29470;53.550;9.926;2022-11-15T22:07:59;100227.56;;;10.45;100.00
43824;BME280;29470;53.550;9.926;2022-11-15T22:13:02;100216.34;;;10.44;100.00
43824;BME280;29470;53.550;9.926;2022-11-15T22:18:05;100226.16;;;10.37;100.00
43824;BME280;29470;53.550;9.926;2022-11-15T22:23:09;100226.09;;;10.35;100.00
43824;BME280;29470;53.550;9.926;2022-11-15T22:28:12;100225.97;;;10.34;100.00
43824;BME280;29470;53.550;9.926;2022-11-15T22:33:17;100219.63;;;10.28;100.00
43824;BME280;29470;53.550;9.926;2022-11-15T22:38:23;100213.84;;;10.32;100.00
43824;BME280;29470;53.550;9.926;2022-11-15T22:43:26;100218.94;;;10.44;100.00
43824;BME280;29470;53.550;9.926;2022-11-15T22:48:31;100212.78;;;10.42;100.00
43824;BME280;29470;53.550;9.926;2022-11-15T22:53:36;100218.84;;;10.29;100.00
43824;BME280;29470;53.550;9.926;2022-11-15T22:58:39;100209.22;;;10.27;100.00
43824;BME280;29470;53.550;9.926;2022-11-15T23:03:42;100206.63;;;10.27;100.00
43824;BME280;29470;53.550;9.926;2022-11-15T23:08:46;100201.34;;;10.25;100.00
43824;BME280;29470;53.550;9.926;2022-11-15T23:13:50;100199.00;;;10.15;100.00
43824;BME280;29470;53.550;9.926;2022-11-15T23:18:56;100191.75;;;10.09;100.00
43824;BME280;29470;53.550;9.926;2022-11-15T23:24:00;100194.75;;;10.02;100.00
43824;BME280;29470;53.550;9.926;2022-11-15T23:29:04;100183.25;;;9.97;100.00
43824;BME280;29470;53.550;9.926;2022-11-15T23:34:07;100174.59;;;9.83;100.00
43824;BME280;29470;53.550;9.926;2022-11-15T23:39:12;100176.91;;;9.92;100.00
43824;BME280;29470;53.550;9.926;2022-11-15T23:44:14;100173.94;;;9.85;100.00
43824;BME280;29470;53.550;9.926;2022-11-15T23:49:18;100176.34;;;9.69;100.00
43824;BME280;29470;53.550;9.926;2022-11-15T23:54:22;100167.31;;;9.62;100.00
43824;BME280;29470;53.550;9.926;2022-11-15T23:59:25;100156.50;;;9.41;100.00
